sensor_id;sensor_type;location;lat;lon;timestamp;P1;durP1;ratioP1;P2;durP2;ratioP2
43700;SDS011;58809;47.984;7.964;2023-07-29T00:02:16;4.82;;;2.85;;
43700;SDS011;58809;47.984;7.964;2023-07-29T00:05:18;5.45;;;3.58;;
43700;SDS011;58809;47.984;7.964;2023-07-29T00:08:20;7.78;;;3.53;;
43700;SDS011;58809;47.984;7.964;2023-07-29T00:11:21;3.97;;;3.15;;
43700;SDS011;58809;47.984;7.964;2023-07-29T00:14:23;4.13;;;2.75;;
43700;SDS011;58809;47.984;7.964;2023-07-29T00:17:24;5.90;;;3.60;;
43700;SDS011;58809;47.984;7.964;2023-07-29T00:20:26;7.85;;;3.42;;
43700;SDS011;58809;47.984;7.964;2023-07-29T00:23:28;6.47;;;3.03;;
43700;SDS011;58809;47.984;7.964;2023-07-29T00:26:30;6.18;;;3.00;;
43700;SDS011;58809;47.984;7.964;2023-07-29T00:29:32;5.93;;;3.20;;
43700;SDS011;58809;47.984;7.964;2023-07-29T00:32:34;5.95;;;3.22;;
43700;SDS011;58809;47.984;7.964;2023-07-29T00:35:36;7.13;;;2.45;;
43700;SDS011;58809;47.984;7.964;2023-07-29T00:38:38;4.70;;;2.60;;
43700;SDS011;58809;47.984;7.964;2023-07-29T00:41:39;6.45;;;2.88;;
43700;SDS011;58809;47.984;7.964;2023-07-29T00:44:41;3.65;;;2.65;;
43700;SDS011;58809;47.984;7.964;2023-07-29T00:47:43;4.53;;;2.50;;
43700;SDS011;58809;47.984;7.964;2023-07-29T00:50:45;5.25;;;2.65;;
43700;SDS011;58809;47.984;7.964;2023-07-29T00:53:46;4.97;;;3.10;;
43700;SDS011;58809;47.984;7.964;2023-07-29T00:56:48;5.43;;;3.10;;
43700;SDS011;58809;47.984;7.964;2023-07-29T00:59:50;9.23;;;2.85;;
43700;SDS011;58809;47.984;7.964;2023-07-29T01:02:52;6.40;;;2.70;;
43700;SDS011;58809;47.984;7.964;2023-07-29T01:06:12;4.78;;;2.50;;
43700;SDS011;58809;47.984;7.964;2023-07-29T01:09:25;3.70;;;2.78;;
43700;SDS011;58809;47.984;7.964;2023-07-29T01:12:37;8.88;;;2.90;;
43700;SDS011;58809;47.984;7.964;2023-07-29T01:15:55;6.32;;;2.88;;
43700;SDS011;58809;47.984;7.964;2023-07-29T01:19:02;6.03;;;2.63;;
43700;SDS011;58809;47.984;7.964;2023-07-29T01:22:08;11.32;;;3.00;;
43700;SDS011;58809;47.984;7.964;2023-07-29T01:25:12;3.63;;;2.80;;
43700;SDS011;58809;47.984;7.964;2023-07-29T01:28:14;3.55;;;2.88;;
43700;SDS011;58809;47.984;7.964;2023-07-29T01:31:22;4.13;;;2.70;;
43700;SDS011;58809;47.984;7.964;2023-07-29T01:34:35;4.90;;;2.60;;
43700;SDS011;58809;47.984;7.964;2023-07-29T01:38:00;3.05;;;2.60;;
43700;SDS011;58809;47.984;7.964;2023-07-29T01:41:07;5.28;;;2.72;;
43700;SDS011;58809;47.984;7.964;2023-07-29T01:44:12;5.05;;;2.97;;
43700;SDS011;58809;47.984;7.964;2023-07-29T01:47:15;4.43;;;3.03;;
43700;SDS011;58809;47.984;7.964;2023-07-29T01:50:17;3.97;;;2.90;;
43700;SDS011;58809;47.984;7.964;2023-07-29T01:53:19;3.65;;;2.72;;
43700;SDS011;58809;47.984;7.964;2023-07-29T01:56:20;3.17;;;2.28;;
43700;SDS011;58809;47.984;7.964;2023-07-29T01:59:26;4.43;;;3.15;;
43700;SDS011;58809;47.984;7.964;2023-07-29T02:02:28;3.58;;;2.95;;
43700;SDS011;58809;47.984;7.964;2023-07-29T02:05:31;7.00;;;2.67;;
43700;SDS011;58809;47.984;7.964;2023-07-29T02:08:32;5.15;;;3.00;;
43700;SDS011;58809;47.984;7.964;2023-07-29T02:11:34;6.28;;;3.72;;
43700;SDS011;58809;47.984;7.964;2023-07-29T02:14:36;5.72;;;3.28;;
43700;SDS011;58809;47.984;7.964;2023-07-29T02:17:37;6.05;;;3.33;;
43700;SDS011;58809;47.984;7.964;2023-07-29T02:20:39;5.78;;;3.08;;
43700;SDS011;58809;47.984;7.964;2023-07-29T02:23:41;9.80;;;3.25;;
43700;SDS011;58809;47.984;7.964;2023-07-29T02:26:42;6.53;;;3.20;;
43700;SDS011;58809;47.984;7.964;2023-07-29T02:29:44;6.75;;;2.83;;
43700;SDS011;58809;47.984;7.964;2023-07-29T02:32:45;6.05;;;3.10;;
43700;SDS011;58809;47.984;7.964;2023-07-29T02:35:47;4.57;;;3.25;;
43700;SDS011;58809;47.984;7.964;2023-07-29T02:38:49;4.03;;;2.80;;
43700;SDS011;58809;47.984;7.964;2023-07-29T02:41:50;5.35;;;3.08;;
43700;SDS011;58809;47.984;7.964;2023-07-29T02:44:52;4.57;;;2.60;;
43700;SDS011;58809;47.984;7.964;2023-07-29T02:47:54;5.05;;;3.40;;
43700;SDS011;58809;47.984;7.964;2023-07-29T02:50:55;5.95;;;3.10;;
43700;SDS011;58809;47.984;7.964;2023-07-29T02:53:57;6.97;;;3.28;;
43700;SDS011;58809;47.984;7.964;2023-07-29T02:56:59;4.25;;;3.42;;
43700;SDS011;58809;47.984;7.964;2023-07-29T03:00:02;3.95;;;3.53;;
43700;SDS011;58809;47.984;7.964;2023-07-29T03:03:04;7.00;;;3.70;;
43700;SDS011;58809;47.984;7.964;2023-07-29T03:06:07;7.32;;;2.97;;
43700;SDS011;58809;47.984;7.964;2023-07-29T03:09:09;5.87;;;3.07;;
43700;SDS011;58809;47.984;7.964;2023-07-29T03:12:11;3.60;;;2.72;;
43700;SDS011;58809;47.984;7.964;2023-07-29T03:15:12;4.55;;;3.45;;
43700;SDS011;58809;47.984;7.964;2023-07-29T03:18:14;4.93;;;2.78;;
43700;SDS011;58809;47.984;7.964;2023-07-29T03:21:16;5.32;;;2.63;;
43700;SDS011;58809;47.984;7.964;2023-07-29T03:24:18;3.97;;;3.00;;
43700;SDS011;58809;47.984;7.964;2023-07-29T03:27:19;4.68;;;3.63;;
43700;SDS011;58809;47.984;7.964;2023-07-29T03:30:21;5.25;;;3.30;;
43700;SDS011;58809;47.984;7.964;2023-07-29T03:33:25;5.63;;;3.20;;
43700;SDS011;58809;47.984;7.964;2023-07-29T03:36:39;4.57;;;3.22;;
43700;SDS011;58809;47.984;7.964;2023-07-29T03:39:41;6.00;;;4.20;;
43700;SDS011;58809;47.984;7.964;2023-07-29T03:42:43;5.88;;;3.90;;
43700;SDS011;58809;47.984;7.964;2023-07-29T03:45:45;7.90;;;3.47;;
43700;SDS011;58809;47.984;7.964;2023-07-29T03:48:47;8.00;;;3.25;;
43700;SDS011;58809;47.984;7.964;2023-07-29T03:51:49;3.90;;;3.03;;
43700;SDS011;58809;47.984;7.964;2023-07-29T03:54:50;5.03;;;2.72;;
43700;SDS011;58809;47.984;7.964;2023-07-29T03:57:52;6.55;;;3.17;;
43700;SDS011;58809;47.984;7.964;2023-07-29T04:00:53;7.38;;;3.72;;
43700;SDS011;58809;47.984;7.964;2023-07-29T04:03:55;5.07;;;3.70;;
43700;SDS011;58809;47.984;7.964;2023-07-29T04:06:57;7.30;;;3.65;;
43700;SDS011;58809;47.984;7.964;2023-07-29T04:09:58;9.20;;;4.35;;
43700;SDS011;58809;47.984;7.964;2023-07-29T04:13:06;5.55;;;3.33;;
43700;SDS011;58809;47.984;7.964;2023-07-29T04:16:07;5.25;;;3.40;;
43700;SDS011;58809;47.984;7.964;2023-07-29T04:19:09;7.00;;;3.55;;
43700;SDS011;58809;47.984;7.964;2023-07-29T04:22:11;6.20;;;3.22;;
43700;SDS011;58809;47.984;7.964;2023-07-29T04:25:12;5.72;;;3.40;;
43700;SDS011;58809;47.984;7.964;2023-07-29T04:28:15;7.45;;;4.05;;
43700;SDS011;58809;47.984;7.964;2023-07-29T04:31:16;7.18;;;4.22;;
43700;SDS011;58809;47.984;7.964;2023-07-29T04:34:18;4.55;;;3.60;;
43700;SDS011;58809;47.984;7.964;2023-07-29T04:37:20;12.88;;;4.35;;
43700;SDS011;58809;47.984;7.964;2023-07-29T04:40:22;5.68;;;3.90;;
43700;SDS011;58809;47.984;7.964;2023-07-29T04:43:26;4.20;;;3.55;;
43700;SDS011;58809;47.984;7.964;2023-07-29T04:46:28;6.30;;;3.72;;
43700;SDS011;58809;47.984;7.964;2023-07-29T04:49:31;6.38;;;3.65;;
43700;SDS011;58809;47.984;7.964;2023-07-29T04:52:32;4.70;;;3.60;;
43700;SDS011;58809;47.984;7.964;2023-07-29T04:55:34;6.80;;;3.63;;
43700;SDS011;58809;47.984;7.964;2023-07-29T04:58:35;6.07;;;4.38;;
43700;SDS011;58809;47.984;7.964;2023-07-29T05:01:37;5.72;;;3.40;;
43700;SDS011;58809;47.984;7.964;2023-07-29T05:04:38;6.88;;;3.95;;
43700;SDS011;58809;47.984;7.964;2023-07-29T05:07:40;4.53;;;3.60;;
43700;SDS011;58809;47.984;7.964;2023-07-29T05:10:42;9.43;;;3.90;;
43700;SDS011;58809;47.984;7.964;2023-07-29T05:13:43;6.10;;;3.90;;
43700;SDS011;58809;47.984;7.964;2023-07-29T05:16:46;5.53;;;3.67;;
43700;SDS011;58809;47.984;7.964;2023-07-29T05:19:49;5.70;;;3.88;;
43700;SDS011;58809;47.984;7.964;2023-07-29T05:22:50;5.68;;;3.40;;
43700;SDS011;58809;47.984;7.964;2023-07-29T05:25:52;8.60;;;4.05;;
43700;SDS011;58809;47.984;7.964;2023-07-29T05:28:53;4.75;;;3.30;;
43700;SDS011;58809;47.984;7.964;2023-07-29T05:31:55;5.85;;;3.47;;
43700;SDS011;58809;47.984;7.964;2023-07-29T05:34:58;4.35;;;3.83;;
43700;SDS011;58809;47.984;7.964;2023-07-29T05:38:00;5.05;;;3.95;;
43700;SDS011;58809;47.984;7.964;2023-07-29T05:41:01;5.70;;;3.70;;
43700;SDS011;58809;47.984;7.964;2023-07-29T05:44:04;6.95;;;3.80;;
43700;SDS011;58809;47.984;7.964;2023-07-29T05:47:08;6.68;;;3.42;;
43700;SDS011;58809;47.984;7.964;2023-07-29T05:50:09;6.18;;;3.50;;
43700;SDS011;58809;47.984;7.964;2023-07-29T05:53:11;5.20;;;3.72;;
43700;SDS011;58809;47.984;7.964;2023-07-29T05:56:13;5.40;;;3.92;;
43700;SDS011;58809;47.984;7.964;2023-07-29T05:59:14;6.22;;;3.92;;
43700;SDS011;58809;47.984;7.964;2023-07-29T06:02:16;7.93;;;3.90;;
43700;SDS011;58809;47.984;7.964;2023-07-29T06:05:18;7.63;;;4.18;;
43700;SDS011;58809;47.984;7.964;2023-07-29T06:08:20;5.10;;;3.88;;
43700;SDS011;58809;47.984;7.964;2023-07-29T06:11:22;7.80;;;4.13;;
43700;SDS011;58809;47.984;7.964;2023-07-29T06:14:24;5.50;;;3.97;;
43700;SDS011;58809;47.984;7.964;2023-07-29T06:17:25;5.72;;;3.40;;
43700;SDS011;58809;47.984;7.964;2023-07-29T06:20:27;5.95;;;4.40;;
43700;SDS011;58809;47.984;7.964;2023-07-29T06:23:29;3.95;;;3.50;;
43700;SDS011;58809;47.984;7.964;2023-07-29T06:26:31;4.38;;;3.45;;
43700;SDS011;58809;47.984;7.964;2023-07-29T06:29:32;4.60;;;3.45;;
43700;SDS011;58809;47.984;7.964;2023-07-29T06:32:34;5.47;;;3.45;;
43700;SDS011;58809;47.984;7.964;2023-07-29T06:35:36;7.18;;;3.78;;
43700;SDS011;58809;47.984;7.964;2023-07-29T06:38:38;6.95;;;3.92;;
43700;SDS011;58809;47.984;7.964;2023-07-29T06:41:39;4.28;;;3.60;;
43700;SDS011;58809;47.984;7.964;2023-07-29T06:44:41;5.90;;;3.80;;
43700;SDS011;58809;47.984;7.964;2023-07-29T06:47:43;5.30;;;3.90;;
43700;SDS011;58809;47.984;7.964;2023-07-29T06:50:44;7.60;;;4.30;;
43700;SDS011;58809;47.984;7.964;2023-07-29T06:53:46;5.57;;;3.65;;
43700;SDS011;58809;47.984;7.964;2023-07-29T06:56:47;5.25;;;3.80;;
43700;SDS011;58809;47.984;7.964;2023-07-29T06:59:49;6.35;;;4.07;;
43700;SDS011;58809;47.984;7.964;2023-07-29T07:02:51;5.85;;;4.00;;
43700;SDS011;58809;47.984;7.964;2023-07-29T07:05:52;5.13;;;3.55;;
43700;SDS011;58809;47.984;7.964;2023-07-29T07:08:54;3.83;;;3.38;;
43700;SDS011;58809;47.984;7.964;2023-07-29T07:11:55;6.30;;;3.58;;
43700;SDS011;58809;47.984;7.964;2023-07-29T07:14:57;4.68;;;3.90;;
43700;SDS011;58809;47.984;7.964;2023-07-29T07:17:58;3.88;;;3.35;;
43700;SDS011;58809;47.984;7.964;2023-07-29T07:21:00;3.58;;;2.95;;
43700;SDS011;58809;47.984;7.964;2023-07-29T07:24:02;4.18;;;3.38;;
43700;SDS011;58809;47.984;7.964;2023-07-29T07:27:03;4.03;;;3.15;;
43700;SDS011;58809;47.984;7.964;2023-07-29T07:30:05;3.85;;;3.35;;
43700;SDS011;58809;47.984;7.964;2023-07-29T07:33:07;5.18;;;3.75;;
43700;SDS011;58809;47.984;7.964;2023-07-29T07:36:09;4.30;;;3.35;;
43700;SDS011;58809;47.984;7.964;2023-07-29T07:39:11;3.92;;;3.35;;
43700;SDS011;58809;47.984;7.964;2023-07-29T07:42:13;4.32;;;3.53;;
43700;SDS011;58809;47.984;7.964;2023-07-29T07:45:14;4.03;;;3.35;;
43700;SDS011;58809;47.984;7.964;2023-07-29T07:48:16;5.05;;;3.55;;
43700;SDS011;58809;47.984;7.964;2023-07-29T07:51:18;3.92;;;3.10;;
43700;SDS011;58809;47.984;7.964;2023-07-29T07:54:23;5.22;;;3.47;;
43700;SDS011;58809;47.984;7.964;2023-07-29T07:57:25;4.60;;;3.78;;
43700;SDS011;58809;47.984;7.964;2023-07-29T08:00:26;4.53;;;3.70;;
43700;SDS011;58809;47.984;7.964;2023-07-29T08:03:28;4.03;;;3.63;;
43700;SDS011;58809;47.984;7.964;2023-07-29T08:06:30;6.53;;;3.53;;
43700;SDS011;58809;47.984;7.964;2023-07-29T08:09:32;5.90;;;3.85;;
43700;SDS011;58809;47.984;7.964;2023-07-29T08:12:33;5.18;;;3.70;;
43700;SDS011;58809;47.984;7.964;2023-07-29T08:15:35;6.40;;;4.22;;
43700;SDS011;58809;47.984;7.964;2023-07-29T08:18:36;4.20;;;3.80;;
43700;SDS011;58809;47.984;7.964;2023-07-29T08:21:38;6.43;;;3.97;;
43700;SDS011;58809;47.984;7.964;2023-07-29T08:24:39;5.85;;;4.28;;
43700;SDS011;58809;47.984;7.964;2023-07-29T08:27:41;6.15;;;4.18;;
43700;SDS011;58809;47.984;7.964;2023-07-29T08:30:43;4.75;;;4.00;;
43700;SDS011;58809;47.984;7.964;2023-07-29T08:33:44;4.72;;;3.90;;
43700;SDS011;58809;47.984;7.964;2023-07-29T08:36:47;4.57;;;3.60;;
43700;SDS011;58809;47.984;7.964;2023-07-29T08:39:48;5.25;;;3.63;;
43700;SDS011;58809;47.984;7.964;2023-07-29T08:42:50;6.90;;;3.60;;
43700;SDS011;58809;47.984;7.964;2023-07-29T08:45:52;6.55;;;3.80;;
43700;SDS011;58809;47.984;7.964;2023-07-29T08:48:54;3.72;;;3.25;;
43700;SDS011;58809;47.984;7.964;2023-07-29T08:51:56;4.40;;;4.00;;
43700;SDS011;58809;47.984;7.964;2023-07-29T08:54:58;4.65;;;3.80;;
43700;SDS011;58809;47.984;7.964;2023-07-29T08:58:00;4.82;;;3.78;;
43700;SDS011;58809;47.984;7.964;2023-07-29T09:01:02;4.15;;;3.47;;
43700;SDS011;58809;47.984;7.964;2023-07-29T09:04:04;5.40;;;3.90;;
43700;SDS011;58809;47.984;7.964;2023-07-29T09:07:06;5.05;;;3.83;;
43700;SDS011;58809;47.984;7.964;2023-07-29T09:10:08;4.80;;;3.55;;
43700;SDS011;58809;47.984;7.964;2023-07-29T09:13:11;5.07;;;3.75;;
43700;SDS011;58809;47.984;7.964;2023-07-29T09:16:13;5.53;;;3.78;;
43700;SDS011;58809;47.984;7.964;2023-07-29T09:19:16;4.15;;;3.67;;
43700;SDS011;58809;47.984;7.964;2023-07-29T09:22:18;6.72;;;4.20;;
43700;SDS011;58809;47.984;7.964;2023-07-29T09:25:28;4.40;;;3.90;;
43700;SDS011;58809;47.984;7.964;2023-07-29T09:28:38;5.55;;;4.20;;
43700;SDS011;58809;47.984;7.964;2023-07-29T09:31:41;5.53;;;4.20;;
43700;SDS011;58809;47.984;7.964;2023-07-29T09:34:42;5.15;;;3.95;;
43700;SDS011;58809;47.984;7.964;2023-07-29T09:37:44;6.30;;;4.00;;
43700;SDS011;58809;47.984;7.964;2023-07-29T09:40:45;5.45;;;3.88;;
43700;SDS011;58809;47.984;7.964;2023-07-29T09:43:47;6.78;;;3.75;;
43700;SDS011;58809;47.984;7.964;2023-07-29T09:46:48;6.93;;;3.92;;
43700;SDS011;58809;47.984;7.964;2023-07-29T09:49:51;5.38;;;3.80;;
43700;SDS011;58809;47.984;7.964;2023-07-29T09:52:53;5.60;;;4.35;;
43700;SDS011;58809;47.984;7.964;2023-07-29T09:55:57;6.47;;;4.25;;
43700;SDS011;58809;47.984;7.964;2023-07-29T09:58:59;5.72;;;3.92;;
43700;SDS011;58809;47.984;7.964;2023-07-29T10:02:08;5.45;;;3.92;;
43700;SDS011;58809;47.984;7.964;2023-07-29T10:05:15;4.82;;;4.28;;
43700;SDS011;58809;47.984;7.964;2023-07-29T10:08:17;4.50;;;3.90;;
43700;SDS011;58809;47.984;7.964;2023-07-29T10:11:20;4.55;;;4.10;;
43700;SDS011;58809;47.984;7.964;2023-07-29T10:14:22;4.65;;;3.65;;
43700;SDS011;58809;47.984;7.964;2023-07-29T10:17:25;4.78;;;3.85;;
43700;SDS011;58809;47.984;7.964;2023-07-29T10:20:27;5.40;;;4.35;;
43700;SDS011;58809;47.984;7.964;2023-07-29T10:23:32;5.38;;;4.07;;
43700;SDS011;58809;47.984;7.964;2023-07-29T10:26:38;4.55;;;4.07;;
43700;SDS011;58809;47.984;7.964;2023-07-29T10:29:45;4.13;;;3.72;;
43700;SDS011;58809;47.984;7.964;2023-07-29T10:32:48;6.32;;;4.50;;
43700;SDS011;58809;47.984;7.964;2023-07-29T10:35:51;6.43;;;4.28;;
43700;SDS011;58809;47.984;7.964;2023-07-29T10:38:54;6.22;;;4.35;;
43700;SDS011;58809;47.984;7.964;2023-07-29T10:42:00;4.63;;;4.07;;
43700;SDS011;58809;47.984;7.964;2023-07-29T10:45:16;5.25;;;4.43;;
43700;SDS011;58809;47.984;7.964;2023-07-29T10:51:36;6.05;;;4.43;;
43700;SDS011;58809;47.984;7.964;2023-07-29T10:54:42;6.05;;;4.05;;
43700;SDS011;58809;47.984;7.964;2023-07-29T10:57:47;5.10;;;4.10;;
43700;SDS011;58809;47.984;7.964;2023-07-29T11:00:49;5.82;;;4.32;;
43700;SDS011;58809;47.984;7.964;2023-07-29T11:07:21;4.45;;;3.90;;
43700;SDS011;58809;47.984;7.964;2023-07-29T11:10:29;4.72;;;3.85;;
43700;SDS011;58809;47.984;7.964;2023-07-29T11:13:44;4.50;;;4.03;;
43700;SDS011;58809;47.984;7.964;2023-07-29T11:16:46;4.70;;;3.97;;
43700;SDS011;58809;47.984;7.964;2023-07-29T11:19:47;4.07;;;3.67;;
43700;SDS011;58809;47.984;7.964;2023-07-29T11:25:54;4.70;;;3.65;;
43700;SDS011;58809;47.984;7.964;2023-07-29T11:28:55;5.30;;;3.55;;
43700;SDS011;58809;47.984;7.964;2023-07-29T11:31:57;4.30;;;3.42;;
43700;SDS011;58809;47.984;7.964;2023-07-29T11:35:02;4.30;;;3.65;;
43700;SDS011;58809;47.984;7.964;2023-07-29T11:38:08;4.50;;;4.00;;
43700;SDS011;58809;47.984;7.964;2023-07-29T11:41:19;4.80;;;3.80;;
43700;SDS011;58809;47.984;7.964;2023-07-29T11:44:22;4.63;;;3.22;;
43700;SDS011;58809;47.984;7.964;2023-07-29T11:47:23;4.72;;;3.50;;
43700;SDS011;58809;47.984;7.964;2023-07-29T11:50:25;4.50;;;3.40;;
43700;SDS011;58809;47.984;7.964;2023-07-29T11:53:28;5.35;;;3.65;;
43700;SDS011;58809;47.984;7.964;2023-07-29T11:59:34;4.68;;;3.35;;
43700;SDS011;58809;47.984;7.964;2023-07-29T12:02:40;4.43;;;3.15;;
43700;SDS011;58809;47.984;7.964;2023-07-29T12:05:46;5.18;;;3.63;;
43700;SDS011;58809;47.984;7.964;2023-07-29T12:08:48;5.30;;;3.20;;
43700;SDS011;58809;47.984;7.964;2023-07-29T12:11:53;4.03;;;3.58;;
43700;SDS011;58809;47.984;7.964;2023-07-29T12:14:56;4.43;;;3.50;;
43700;SDS011;58809;47.984;7.964;2023-07-29T12:17:58;4.18;;;3.60;;
43700;SDS011;58809;47.984;7.964;2023-07-29T12:21:00;3.78;;;3.40;;
43700;SDS011;58809;47.984;7.964;2023-07-29T12:24:02;4.18;;;3.70;;
43700;SDS011;58809;47.984;7.964;2023-07-29T12:27:05;5.00;;;3.70;;
43700;SDS011;58809;47.984;7.964;2023-07-29T12:30:07;4.90;;;3.63;;
43700;SDS011;58809;47.984;7.964;2023-07-29T12:33:11;4.82;;;3.58;;
43700;SDS011;58809;47.984;7.964;2023-07-29T12:36:12;5.38;;;3.80;;
43700;SDS011;58809;47.984;7.964;2023-07-29T12:39:21;5.07;;;3.47;;
43700;SDS011;58809;47.984;7.964;2023-07-29T12:42:27;4.20;;;3.80;;
43700;SDS011;58809;47.984;7.964;2023-07-29T12:45:35;4.43;;;3.30;;
43700;SDS011;58809;47.984;7.964;2023-07-29T12:48:37;5.07;;;3.50;;
43700;SDS011;58809;47.984;7.964;2023-07-29T12:51:38;4.20;;;3.33;;
43700;SDS011;58809;47.984;7.964;2023-07-29T12:54:40;4.07;;;3.60;;
43700;SDS011;58809;47.984;7.964;2023-07-29T12:57:43;4.72;;;3.50;;
43700;SDS011;58809;47.984;7.964;2023-07-29T13:00:44;4.85;;;3.30;;
43700;SDS011;58809;47.984;7.964;2023-07-29T13:03:47;4.95;;;3.60;;
43700;SDS011;58809;47.984;7.964;2023-07-29T13:09:51;3.70;;;3.20;;
43700;SDS011;58809;47.984;7.964;2023-07-29T13:12:53;3.88;;;3.30;;
43700;SDS011;58809;47.984;7.964;2023-07-29T13:15:54;5.50;;;3.53;;
43700;SDS011;58809;47.984;7.964;2023-07-29T13:18:56;4.22;;;3.65;;
43700;SDS011;58809;47.984;7.964;2023-07-29T13:21:58;4.25;;;3.65;;
43700;SDS011;58809;47.984;7.964;2023-07-29T13:24:59;4.85;;;3.70;;
43700;SDS011;58809;47.984;7.964;2023-07-29T13:28:01;4.70;;;3.42;;
43700;SDS011;58809;47.984;7.964;2023-07-29T13:31:02;4.20;;;3.30;;
43700;SDS011;58809;47.984;7.964;2023-07-29T13:34:04;4.30;;;3.88;;
43700;SDS011;58809;47.984;7.964;2023-07-29T13:37:06;4.15;;;3.55;;
43700;SDS011;58809;47.984;7.964;2023-07-29T13:40:08;5.60;;;4.00;;
43700;SDS011;58809;47.984;7.964;2023-07-29T13:43:09;5.00;;;3.45;;
43700;SDS011;58809;47.984;7.964;2023-07-29T13:46:11;4.40;;;3.45;;
43700;SDS011;58809;47.984;7.964;2023-07-29T13:49:13;4.78;;;3.50;;
43700;SDS011;58809;47.984;7.964;2023-07-29T13:52:14;3.92;;;3.45;;
43700;SDS011;58809;47.984;7.964;2023-07-29T13:55:16;4.18;;;3.78;;
43700;SDS011;58809;47.984;7.964;2023-07-29T13:58:18;4.18;;;3.47;;
43700;SDS011;58809;47.984;7.964;2023-07-29T14:01:19;3.95;;;3.53;;
43700;SDS011;58809;47.984;7.964;2023-07-29T14:04:21;5.38;;;3.75;;
43700;SDS011;58809;47.984;7.964;2023-07-29T14:07:23;4.32;;;3.80;;
43700;SDS011;58809;47.984;7.964;2023-07-29T14:10:25;4.45;;;3.58;;
43700;SDS011;58809;47.984;7.964;2023-07-29T14:13:27;3.85;;;3.40;;
43700;SDS011;58809;47.984;7.964;2023-07-29T14:16:28;3.70;;;3.30;;
43700;SDS011;58809;47.984;7.964;2023-07-29T14:19:33;5.07;;;3.88;;
43700;SDS011;58809;47.984;7.964;2023-07-29T14:22:35;5.28;;;3.80;;
43700;SDS011;58809;47.984;7.964;2023-07-29T14:25:37;5.63;;;4.10;;
43700;SDS011;58809;47.984;7.964;2023-07-29T14:28:38;4.60;;;3.60;;
43700;SDS011;58809;47.984;7.964;2023-07-29T14:31:40;5.07;;;3.97;;
43700;SDS011;58809;47.984;7.964;2023-07-29T14:34:42;6.10;;;4.40;;
43700;SDS011;58809;47.984;7.964;2023-07-29T14:37:43;35.58;;;6.50;;
43700;SDS011;58809;47.984;7.964;2023-07-29T14:40:47;6.72;;;5.40;;
43700;SDS011;58809;47.984;7.964;2023-07-29T14:43:49;8.70;;;6.05;;
43700;SDS011;58809;47.984;7.964;2023-07-29T14:46:50;9.77;;;8.02;;
43700;SDS011;58809;47.984;7.964;2023-07-29T14:49:52;16.48;;;7.53;;
43700;SDS011;58809;47.984;7.964;2023-07-29T14:52:54;13.55;;;6.53;;
43700;SDS011;58809;47.984;7.964;2023-07-29T14:55:55;10.93;;;6.65;;
43700;SDS011;58809;47.984;7.964;2023-07-29T14:58:57;7.22;;;6.30;;
43700;SDS011;58809;47.984;7.964;2023-07-29T15:01:59;8.02;;;5.85;;
43700;SDS011;58809;47.984;7.964;2023-07-29T15:05:00;6.95;;;5.63;;
43700;SDS011;58809;47.984;7.964;2023-07-29T15:08:02;7.80;;;5.70;;
43700;SDS011;58809;47.984;7.964;2023-07-29T15:11:04;7.97;;;5.70;;
43700;SDS011;58809;47.984;7.964;2023-07-29T15:14:06;7.65;;;5.68;;
43700;SDS011;58809;47.984;7.964;2023-07-29T15:17:08;9.57;;;6.38;;
43700;SDS011;58809;47.984;7.964;2023-07-29T15:20:10;7.72;;;6.00;;
43700;SDS011;58809;47.984;7.964;2023-07-29T15:23:12;6.80;;;4.90;;
43700;SDS011;58809;47.984;7.964;2023-07-29T15:26:14;6.30;;;4.90;;
43700;SDS011;58809;47.984;7.964;2023-07-29T15:29:15;7.80;;;5.05;;
43700;SDS011;58809;47.984;7.964;2023-07-29T15:32:17;6.22;;;5.00;;
43700;SDS011;58809;47.984;7.964;2023-07-29T15:35:18;7.03;;;4.95;;
43700;SDS011;58809;47.984;7.964;2023-07-29T15:38:22;6.97;;;4.80;;
43700;SDS011;58809;47.984;7.964;2023-07-29T15:41:24;4.63;;;4.18;;
43700;SDS011;58809;47.984;7.964;2023-07-29T15:44:25;5.32;;;4.25;;
43700;SDS011;58809;47.984;7.964;2023-07-29T15:47:27;5.10;;;4.40;;
43700;SDS011;58809;47.984;7.964;2023-07-29T15:50:29;5.72;;;4.60;;
43700;SDS011;58809;47.984;7.964;2023-07-29T15:53:30;5.40;;;4.00;;
43700;SDS011;58809;47.984;7.964;2023-07-29T15:56:32;4.47;;;3.95;;
43700;SDS011;58809;47.984;7.964;2023-07-29T15:59:37;4.97;;;4.28;;
43700;SDS011;58809;47.984;7.964;2023-07-29T16:02:39;5.13;;;4.35;;
43700;SDS011;58809;47.984;7.964;2023-07-29T16:05:41;4.88;;;4.38;;
43700;SDS011;58809;47.984;7.964;2023-07-29T16:08:43;5.50;;;4.57;;
43700;SDS011;58809;47.984;7.964;2023-07-29T16:11:44;4.90;;;4.13;;
43700;SDS011;58809;47.984;7.964;2023-07-29T16:14:46;5.28;;;4.70;;
43700;SDS011;58809;47.984;7.964;2023-07-29T16:17:47;6.30;;;4.70;;
43700;SDS011;58809;47.984;7.964;2023-07-29T16:20:52;5.85;;;4.60;;
43700;SDS011;58809;47.984;7.964;2023-07-29T16:23:55;5.25;;;4.68;;
43700;SDS011;58809;47.984;7.964;2023-07-29T16:26:56;5.57;;;4.65;;
43700;SDS011;58809;47.984;7.964;2023-07-29T16:29:58;6.32;;;4.60;;
43700;SDS011;58809;47.984;7.964;2023-07-29T16:33:01;5.70;;;4.77;;
43700;SDS011;58809;47.984;7.964;2023-07-29T16:36:03;5.55;;;5.00;;
43700;SDS011;58809;47.984;7.964;2023-07-29T16:39:05;5.70;;;4.80;;
43700;SDS011;58809;47.984;7.964;2023-07-29T16:42:06;6.95;;;5.38;;
43700;SDS011;58809;47.984;7.964;2023-07-29T16:45:08;6.38;;;5.18;;
43700;SDS011;58809;47.984;7.964;2023-07-29T16:48:10;5.22;;;4.72;;
43700;SDS011;58809;47.984;7.964;2023-07-29T16:51:12;6.80;;;6.10;;
43700;SDS011;58809;47.984;7.964;2023-07-29T16:54:13;7.57;;;6.15;;
43700;SDS011;58809;47.984;7.964;2023-07-29T16:57:19;7.63;;;5.85;;
43700;SDS011;58809;47.984;7.964;2023-07-29T17:00:20;6.55;;;5.72;;
43700;SDS011;58809;47.984;7.964;2023-07-29T17:03:22;7.20;;;5.60;;
43700;SDS011;58809;47.984;7.964;2023-07-29T17:06:23;8.27;;;5.85;;
43700;SDS011;58809;47.984;7.964;2023-07-29T17:09:25;6.97;;;5.70;;
43700;SDS011;58809;47.984;7.964;2023-07-29T17:12:27;6.28;;;4.93;;
43700;SDS011;58809;47.984;7.964;2023-07-29T17:15:28;5.75;;;5.10;;
43700;SDS011;58809;47.984;7.964;2023-07-29T17:18:30;6.80;;;5.53;;
43700;SDS011;58809;47.984;7.964;2023-07-29T17:21:31;7.32;;;5.45;;
43700;SDS011;58809;47.984;7.964;2023-07-29T17:24:33;5.95;;;4.93;;
43700;SDS011;58809;47.984;7.964;2023-07-29T17:27:34;6.88;;;5.43;;
43700;SDS011;58809;47.984;7.964;2023-07-29T17:30:36;6.10;;;5.47;;
43700;SDS011;58809;47.984;7.964;2023-07-29T17:33:38;7.07;;;5.22;;
43700;SDS011;58809;47.984;7.964;2023-07-29T17:36:39;6.07;;;5.10;;
43700;SDS011;58809;47.984;7.964;2023-07-29T17:39:41;7.13;;;5.05;;
43700;SDS011;58809;47.984;7.964;2023-07-29T17:42:43;6.97;;;5.97;;
43700;SDS011;58809;47.984;7.964;2023-07-29T17:45:45;6.05;;;5.18;;
43700;SDS011;58809;47.984;7.964;2023-07-29T17:48:46;7.50;;;5.97;;
43700;SDS011;58809;47.984;7.964;2023-07-29T17:51:48;9.02;;;6.03;;
43700;SDS011;58809;47.984;7.964;2023-07-29T17:54:51;7.05;;;5.57;;
43700;SDS011;58809;47.984;7.964;2023-07-29T17:57:52;6.53;;;5.63;;
43700;SDS011;58809;47.984;7.964;2023-07-29T18:00:54;7.18;;;5.78;;
43700;SDS011;58809;47.984;7.964;2023-07-29T18:03:59;10.13;;;6.30;;
43700;SDS011;58809;47.984;7.964;2023-07-29T18:07:01;8.23;;;5.93;;
43700;SDS011;58809;47.984;7.964;2023-07-29T18:10:02;7.75;;;6.10;;
43700;SDS011;58809;47.984;7.964;2023-07-29T18:13:04;8.50;;;5.60;;
43700;SDS011;58809;47.984;7.964;2023-07-29T18:16:08;7.78;;;5.95;;
43700;SDS011;58809;47.984;7.964;2023-07-29T18:19:10;8.43;;;5.85;;
43700;SDS011;58809;47.984;7.964;2023-07-29T18:22:12;9.68;;;5.68;;
43700;SDS011;58809;47.984;7.964;2023-07-29T18:25:14;9.98;;;6.20;;
43700;SDS011;58809;47.984;7.964;2023-07-29T18:28:16;7.05;;;6.10;;
43700;SDS011;58809;47.984;7.964;2023-07-29T18:31:18;8.48;;;6.20;;
43700;SDS011;58809;47.984;7.964;2023-07-29T18:34:19;7.82;;;6.32;;
43700;SDS011;58809;47.984;7.964;2023-07-29T18:37:22;7.95;;;5.88;;